Time,TemperatureF,DewpointF,PressureIn,WindDirection,WindDirectionDegrees,WindSpeedMPH,WindSpeedGustMPH,Humidity,HourlyPrecipIn,Conditions,Clouds,dailyrainin,SoftwareType,DateUTC
2013-07-31 00:07:00,69.3,-35.2,30.08,SSE,157,0.0,-999.0,1,-99.99,,,0.00,Acu-Link.com,2013-07-31 04:07:00,
2013-07-31 00:22:00,69.4,-35.2,30.08,SSE,157,1.7,-999.0,1,-99.99,,,0.00,Acu-Link.com,2013-07-31 04:22:00,
2013-07-31 00:38:00,69.4,-35.2,30.08,SSE,157,0.0,-999.0,1,-99.99,,,0.00,Acu-Link.com,2013-07-31 04:38:00,
2013-07-31 00:53:00,69.1,-35.4,30.08,SSE,157,0.0,-999.0,1,-99.99,,,0.00,Acu-Link.com,2013-07-31 04:53:00,
2013-07-31 01:08:00,69.1,-35.4,30.07,SSE,157,0.0,-999.0,1,-99.99,,,0.00,Acu-Link.com,2013-07-31 05:08:00,
2013-07-31 01:24:00,68.7,-35.6,30.07,SSE,157,0.0,-999.0,1,-99.99,,,0.00,Acu-Link.com,2013-07-31 05:24:00,
2013-07-31 01:39:00,68.4,-35.8,30.07,SSE,157,0.0,-999.0,1,-99.99,,,0.00,Acu-Link.com,2013-07-31 05:39:00,
2013-07-31 01:54:00,68.0,-36.0,30.07,SSE,157,0.0,-999.0,1,-99.99,,,0.00,Acu-Link.com,2013-07-31 05:54:00,
2013-07-31 02:10:00,67.5,-36.3,30.07,SSE,157,0.0,-999.0,1,-99.99,,,0.00,Acu-Link.com,2013-07-31 06:10:00,
2013-07-31 02:25:00,67.3,-36.4,30.07,SSE,157,0.0,-999.0,1,-99.99,,,0.00,Acu-Link.com,2013-07-31 06:25:00,
2013-07-31 02:40:00,67.1,-36.6,30.07,SSE,157,0.0,-999.0,1,-99.99,,,0.00,Acu-Link.com,2013-07-31 06:40:00,
2013-07-31 02:55:00,67.1,-36.6,30.06,SSE,157,0.0,-999.0,1,-99.99,,,0.00,Acu-Link.com,2013-07-31 06:55:00,
2013-07-31 03:10:00,66.7,-36.8,30.06,SSE,157,0.0,-999.0,1,-99.99,,,0.00,Acu-Link.com,2013-07-31 07:10:00,
2013-07-31 03:26:00,66.7,-36.8,30.06,South,180,0.0,-999.0,1,-99.99,,,0.00,Acu-Link.com,2013-07-31 07:26:00,
2013-07-31 03:41:00,67.3,-36.4,30.06,South,180,0.0,-999.0,1,-99.99,,,0.00,Acu-Link.com,2013-07-31 07:41:00,
2013-07-31 03:56:00,67.3,-36.4,30.07,South,180,0.0,-999.0,1,-99.99,,,0.00,Acu-Link.com,2013-07-31 07:56:00,
2013-07-31 04:27:00,67.3,-36.4,30.06,South,180,0.0,-999.0,1,-99.99,,,0.00,Acu-Link.com,2013-07-31 08:27:00,
2013-07-31 04:42:00,67.1,-36.6,30.06,South,180,0.0,-999.0,1,-99.99,,,0.00,Acu-Link.com,2013-07-31 08:42:00,
2013-07-31 04:57:00,66.7,-36.8,30.06,West,270,0.0,-999.0,1,-99.99,,,0.00,Acu-Link.com,2013-07-31 08:57:00,
2013-07-31 05:12:00,66.4,-37.0,30.06,WSW,247,0.0,-999.0,1,-99.99,,,0.00,Acu-Link.com,2013-07-31 09:12:00,
2013-07-31 05:27:00,67.8,-36.1,30.07,South,180,2.2,-999.0,1,-99.99,,,0.00,Acu-Link.com,2013-07-31 09:27:00,
2013-07-31 05:43:00,67.6,-36.3,30.07,South,180,0.0,-999.0,1,-99.99,,,0.00,Acu-Link.com,2013-07-31 09:43:00,
2013-07-31 05:58:00,67.6,-36.3,30.08,South,180,0.0,-999.0,1,-99.99,,,0.00,Acu-Link.com,2013-07-31 09:58:00,
2013-07-31 06:13:00,67.3,-36.4,30.07,South,180,0.0,-999.0,1,-99.99,,,0.00,Acu-Link.com,2013-07-31 10:13:00,
2013-07-31 06:29:00,67.5,-36.3,30.08,South,180,0.0,-999.0,1,-99.99,,,0.00,Acu-Link.com,2013-07-31 10:29:00,
2013-07-31 06:45:00,67.5,-36.3,30.08,South,180,0.0,-999.0,1,-99.99,,,0.00,Acu-Link.com,2013-07-31 10:45:00,
2013-07-31 07:00:00,68.2,-35.9,30.08,South,180,0.0,-999.0,1,-99.99,,,0.00,Acu-Link.com,2013-07-31 11:00:00,
2013-07-31 07:16:00,70.0,-34.8,30.08,South,180,0.0,-999.0,1,-99.99,,,0.00,Acu-Link.com,2013-07-31 11:16:00,
2013-07-31 07:31:00,71.6,-33.9,30.08,South,180,2.7,-999.0,1,-99.99,,,0.00,Acu-Link.com,2013-07-31 11:31:00,
2013-07-31 07:46:00,72.5,-33.3,30.09,South,180,2.2,-999.0,1,-99.99,,,0.00,Acu-Link.com,2013-07-31 11:46:00,
2013-07-31 08:02:00,73.9,69.4,30.09,South,180,0.0,-999.0,86,-99.99,,,0.00,Acu-Link.com,2013-07-31 12:02:00,
2013-07-31 08:17:00,76.5,72.3,30.09,South,180,0.0,-999.0,87,-99.99,,,0.00,Acu-Link.com,2013-07-31 12:17:00,
2013-07-31 08:32:00,77.9,-30.1,30.09,South,180,1.7,-999.0,1,-99.99,,,0.00,Acu-Link.com,2013-07-31 12:32:00,
2013-07-31 08:48:00,79.9,-28.9,30.09,South,180,0.0,-999.0,1,-99.99,,,0.00,Acu-Link.com,2013-07-31 12:48:00,
2013-07-31 09:03:00,77.7,54.0,30.09,SSE,157,2.2,-999.0,44,-99.99,,,0.00,Acu-Link.com,2013-07-31 13:03:00,
2013-07-31 09:18:00,78.3,40.6,30.09,SE,135,2.2,-999.0,26,-99.99,,,0.00,Acu-Link.com,2013-07-31 13:18:00,
2013-07-31 09:33:00,80.1,-28.8,30.09,ENE,67,2.2,-999.0,1,-99.99,,,0.00,Acu-Link.com,2013-07-31 13:33:00,
2013-07-31 09:49:00,79.3,-29.3,30.10,SSW,202,2.2,-999.0,1,-99.99,,,0.00,Acu-Link.com,2013-07-31 13:49:00,
2013-07-31 10:04:00,77.9,-30.1,30.09,SSE,157,3.7,-999.0,1,-99.99,,,0.00,Acu-Link.com,2013-07-31 14:04:00,
2013-07-31 10:19:00,78.1,-17.0,30.09,SSE,157,2.7,-999.0,2,-99.99,,,0.00,Acu-Link.com,2013-07-31 14:19:00,
2013-07-31 10:34:00,81.3,-28.1,30.08,SSE,157,1.1,-999.0,1,-99.99,,,0.00,Acu-Link.com,2013-07-31 14:34:00,
2013-07-31 10:49:00,82.8,-27.2,30.09,East,90,3.2,-999.0,1,-99.99,,,0.00,Acu-Link.com,2013-07-31 14:49:00,
2013-07-31 11:04:00,80.6,-28.5,30.08,ESE,112,4.7,-999.0,1,-99.99,,,0.00,Acu-Link.com,2013-07-31 15:04:00,
2013-07-31 11:19:00,79.0,-29.4,30.08,ESE,112,2.7,-999.0,1,-99.99,,,0.00,Acu-Link.com,2013-07-31 15:19:00,
2013-07-31 11:35:00,78.3,-29.9,30.08,ESE,112,2.2,-999.0,1,-99.99,,,0.00,Acu-Link.com,2013-07-31 15:35:00,
2013-07-31 11:50:00,81.0,-28.2,30.07,ESE,112,3.7,-999.0,1,-99.99,,,0.00,Acu-Link.com,2013-07-31 15:50:00,
2013-07-31 12:06:00,81.5,-27.9,30.07,SE,135,2.7,-999.0,1,-99.99,,,0.00,Acu-Link.com,2013-07-31 16:06:00,
2013-07-31 12:21:00,80.2,-28.7,30.06,SE,135,3.2,-999.0,1,-99.99,,,0.00,Acu-Link.com,2013-07-31 16:21:00,
2013-07-31 12:51:00,78.4,-29.8,30.06,ESE,112,6.8,-999.0,1,-99.99,,,0.00,Acu-Link.com,2013-07-31 16:51:00,
2013-07-31 13:07:00,77.9,8.9,30.06,SSE,157,4.7,-999.0,7,-99.99,,,0.00,Acu-Link.com,2013-07-31 17:07:00,
2013-07-31 13:22:00,78.1,25.0,30.05,East,90,4.2,-999.0,14,-99.99,,,0.00,Acu-Link.com,2013-07-31 17:22:00,
2013-07-31 13:37:00,80.4,-28.6,30.05,South,180,4.2,-999.0,1,-99.99,,,0.00,Acu-Link.com,2013-07-31 17:37:00,
2013-07-31 13:52:00,79.7,-29.0,30.04,East,90,4.7,-999.0,1,-99.99,,,0.00,Acu-Link.com,2013-07-31 17:52:00,
2013-07-31 14:07:00,79.3,-29.3,30.04,ESE,112,3.7,-999.0,1,-99.99,,,0.00,Acu-Link.com,2013-07-31 18:07:00,
2013-07-31 14:23:00,81.1,-28.2,30.03,ESE,112,5.8,-999.0,1,-99.99,,,0.00,Acu-Link.com,2013-07-31 18:23:00,
2013-07-31 14:38:00,79.2,-29.3,30.03,ESE,112,7.3,-999.0,1,-99.99,,,0.00,Acu-Link.com,2013-07-31 18:38:00,
2013-07-31 14:53:00,78.4,-29.8,30.02,ESE,112,8.3,-999.0,1,-99.99,,,0.00,Acu-Link.com,2013-07-31 18:53:00,
2013-07-31 15:09:00,78.6,-29.7,30.02,ESE,112,5.3,-999.0,1,-99.99,,,0.00,Acu-Link.com,2013-07-31 19:09:00,
2013-07-31 15:24:00,80.6,-28.5,30.02,ESE,112,4.7,-999.0,1,-99.99,,,0.00,Acu-Link.com,2013-07-31 19:24:00,
2013-07-31 15:39:00,79.7,-29.0,30.02,SSE,157,4.7,-999.0,1,-99.99,,,0.00,Acu-Link.com,2013-07-31 19:39:00,
2013-07-31 15:54:00,79.5,-29.1,30.02,SSE,157,4.7,-999.0,1,-99.99,,,0.00,Acu-Link.com,2013-07-31 19:54:00,
2013-07-31 16:13:00,79.0,-29.4,30.01,South,180,3.7,-999.0,1,-99.99,,,0.00,Acu-Link.com,2013-07-31 20:13:00,
2013-07-31 16:29:00,79.3,-29.3,30.01,South,180,3.7,-999.0,1,-99.99,,,0.00,Acu-Link.com,2013-07-31 20:29:00,
2013-07-31 16:44:00,79.3,-29.3,30.01,SSE,157,5.3,-999.0,1,-99.99,,,0.00,Acu-Link.com,2013-07-31 20:44:00,
2013-07-31 16:59:00,79.5,-29.1,30.00,SE,135,3.7,-999.0,1,-99.99,,,0.00,Acu-Link.com,2013-07-31 20:59:00,
2013-07-31 17:14:00,78.6,-29.7,30.00,East,90,2.7,-999.0,1,-99.99,,,0.00,Acu-Link.com,2013-07-31 21:14:00,
2013-07-31 17:29:00,78.3,-29.9,29.99,East,90,3.2,-999.0,1,-99.99,,,0.00,Acu-Link.com,2013-07-31 21:29:00,
2013-07-31 17:45:00,78.3,-29.9,30.00,East,90,2.2,-999.0,1,-99.99,,,0.00,Acu-Link.com,2013-07-31 21:45:00,
2013-07-31 18:00:00,77.9,-30.1,29.99,East,90,2.7,-999.0,1,-99.99,,,0.00,Acu-Link.com,2013-07-31 22:00:00,
2013-07-31 18:15:00,78.3,-29.9,29.99,East,90,2.7,-999.0,1,-99.99,,,0.00,Acu-Link.com,2013-07-31 22:15:00,
2013-07-31 18:30:00,77.9,-30.1,29.99,East,90,2.7,-999.0,1,-99.99,,,0.00,Acu-Link.com,2013-07-31 22:30:00,
2013-07-31 18:45:00,77.7,-30.2,29.99,East,90,0.0,-999.0,1,-99.99,,,0.00,Acu-Link.com,2013-07-31 22:45:00,
2013-07-31 19:00:00,76.8,-30.7,29.99,East,90,4.7,-999.0,1,-99.99,,,0.00,Acu-Link.com,2013-07-31 23:00:00,
2013-07-31 19:16:00,76.3,-31.0,29.98,East,90,4.7,-999.0,1,-99.99,,,0.00,Acu-Link.com,2013-07-31 23:16:00,
2013-07-31 19:47:00,75.6,-31.5,29.99,East,90,0.0,-999.0,1,-99.99,,,0.00,Acu-Link.com,2013-07-31 23:47:00,
2013-07-31 20:02:00,75.2,-31.7,29.98,East,90,1.7,-999.0,1,-99.99,,,0.00,Acu-Link.com,2013-08-01 00:02:00,
2013-07-31 20:17:00,74.8,43.8,29.98,East,90,3.2,-999.0,33,-99.99,,,0.00,Acu-Link.com,2013-08-01 00:17:00,
2013-07-31 20:33:00,74.7,74.1,29.98,East,90,1.7,-999.0,98,-99.99,,,0.00,Acu-Link.com,2013-08-01 00:33:00,
2013-07-31 20:48:00,74.5,72.3,29.98,East,90,3.7,-999.0,93,-99.99,,,0.00,Acu-Link.com,2013-08-01 00:48:00,
2013-07-31 21:03:00,74.5,-32.1,29.99,East,90,1.7,-999.0,1,-99.99,,,0.00,Acu-Link.com,2013-08-01 01:03:00,
2013-07-31 23:33:00,73.6,-32.7,29.97,East,90,2.7,-999.0,1,-99.99,,,0.00,Acu-Link.com,2013-08-01 03:33:00,
2013-07-31 23:49:00,73.8,-32.5,29.97,East,90,2.2,-999.0,1,-99.99,,,0.00,Acu-Link.com,2013-08-01 03:49:00,